CheckWX is a tool to help pilots better visualize weather data.  It is not intended as a substitute for an official pre-flight weather briefing.

02:48:54 UTC

KMQI METAR
Dare County Regional Airport
Manteo, North Carolina, USA
Current

54 mins ago

KMQI 210155Z AUTO 00000KT 10SM CLR 15/13 A3030 RMK AO2 T01530130
Observed
Sep-21 @ 01:55 UTC
Visibility
10 SM
Flight Rules
VFR
Cloud Levels
  • Clear skies
Temperature
15°C / 59°F
Dewpoint
13°C / 55°F
Humidity
88%
Altimeter
30.3" Hg
Pressure
1026.12 hPa
Previous

1 hour ago

KMQI 210135Z AUTO 00000KT 10SM CLR 17/13 A3030 RMK AO2 T01720133
Observed
Sep-21 @ 01:35 UTC
Visibility
10 SM
Flight Rules
VFR
Cloud Levels
  • Clear skies
Temperature
17°C / 63°F
Dewpoint
13°C / 55°F
Humidity
77%
Altimeter
30.3" Hg
Pressure
1026.12 hPa
Previous

2 hours ago

KMQI 210115Z AUTO 16004KT 10SM CLR 18/14 A3030 RMK AO2 T01780136
Observed
Sep-21 @ 01:15 UTC
Wind
  • 160° at 4 KTS
Visibility
10 SM
Flight Rules
VFR
Cloud Levels
  • Clear skies
Temperature
18°C / 64°F
Dewpoint
14°C / 57°F
Humidity
78%
Altimeter
30.3" Hg
Pressure
1026.12 hPa